sensor_id;sensor_type;location;lat;lon;timestamp;P1;durP1;ratioP1;P2;durP2;ratioP2
17886;SDS011;9069;52.044;7.472;2022-07-01T00:01:37;4.30;;;1.60;;
17886;SDS011;9069;52.044;7.472;2022-07-01T00:04:04;2.03;;;1.20;;
17886;SDS011;9069;52.044;7.472;2022-07-01T00:06:31;2.00;;;1.17;;
17886;SDS011;9069;52.044;7.472;2022-07-01T00:08:58;1.65;;;1.00;;
17886;SDS011;9069;52.044;7.472;2022-07-01T00:11:25;1.65;;;1.17;;
17886;SDS011;9069;52.044;7.472;2022-07-01T00:13:52;2.90;;;1.20;;
17886;SDS011;9069;52.044;7.472;2022-07-01T00:16:19;2.30;;;1.08;;
17886;SDS011;9069;52.044;7.472;2022-07-01T00:18:46;0.80;;;0.80;;
17886;SDS011;9069;52.044;7.472;2022-07-01T00:21:12;2.42;;;1.00;;
17886;SDS011;9069;52.044;7.472;2022-07-01T00:23:41;3.92;;;1.75;;
17886;SDS011;9069;52.044;7.472;2022-07-01T00:26:08;2.10;;;1.30;;
17886;SDS011;9069;52.044;7.472;2022-07-01T00:28:35;2.35;;;1.50;;
17886;SDS011;9069;52.044;7.472;2022-07-01T00:31:02;1.75;;;1.52;;
17886;SDS011;9069;52.044;7.472;2022-07-01T00:33:29;6.05;;;2.10;;
17886;SDS011;9069;52.044;7.472;2022-07-01T00:35:56;2.67;;;1.48;;
17886;SDS011;9069;52.044;7.472;2022-07-01T00:38:22;1.60;;;1.50;;
17886;SDS011;9069;52.044;7.472;2022-07-01T00:40:53;4.05;;;1.58;;
17886;SDS011;9069;52.044;7.472;2022-07-01T00:43:20;2.90;;;1.90;;
17886;SDS011;9069;52.044;7.472;2022-07-01T00:46:11;2.05;;;1.50;;
17886;SDS011;9069;52.044;7.472;2022-07-01T00:48:38;3.67;;;1.85;;
17886;SDS011;9069;52.044;7.472;2022-07-01T00:51:06;2.00;;;1.48;;
17886;SDS011;9069;52.044;7.472;2022-07-01T00:53:33;1.85;;;1.40;;
17886;SDS011;9069;52.044;7.472;2022-07-01T00:56:01;2.17;;;1.80;;
17886;SDS011;9069;52.044;7.472;2022-07-01T00:58:29;2.35;;;1.75;;
17886;SDS011;9069;52.044;7.472;2022-07-01T01:00:56;1.65;;;1.45;;
17886;SDS011;9069;52.044;7.472;2022-07-01T01:03:25;2.35;;;2.00;;
17886;SDS011;9069;52.044;7.472;2022-07-01T01:05:53;4.22;;;1.73;;
17886;SDS011;9069;52.044;7.472;2022-07-01T01:08:23;4.60;;;2.40;;
17886;SDS011;9069;52.044;7.472;2022-07-01T01:10:50;3.15;;;2.15;;
17886;SDS011;9069;52.044;7.472;2022-07-01T01:13:18;4.40;;;2.05;;
17886;SDS011;9069;52.044;7.472;2022-07-01T01:15:44;5.95;;;2.47;;
17886;SDS011;9069;52.044;7.472;2022-07-01T01:18:11;3.20;;;2.35;;
17886;SDS011;9069;52.044;7.472;2022-07-01T01:20:38;3.65;;;2.45;;
17886;SDS011;9069;52.044;7.472;2022-07-01T01:23:05;4.50;;;2.72;;
17886;SDS011;9069;52.044;7.472;2022-07-01T01:25:33;3.78;;;2.95;;
17886;SDS011;9069;52.044;7.472;2022-07-01T01:28:00;2.83;;;2.33;;
17886;SDS011;9069;52.044;7.472;2022-07-01T01:30:28;2.58;;;2.20;;
17886;SDS011;9069;52.044;7.472;2022-07-01T01:32:54;4.72;;;2.90;;
17886;SDS011;9069;52.044;7.472;2022-07-01T01:35:21;3.97;;;3.05;;
17886;SDS011;9069;52.044;7.472;2022-07-01T01:37:48;3.28;;;2.85;;
17886;SDS011;9069;52.044;7.472;2022-07-01T01:40:15;6.03;;;3.03;;
17886;SDS011;9069;52.044;7.472;2022-07-01T01:42:42;3.25;;;2.95;;
17886;SDS011;9069;52.044;7.472;2022-07-01T01:45:10;3.35;;;2.90;;
17886;SDS011;9069;52.044;7.472;2022-07-01T01:47:38;6.50;;;3.03;;
17886;SDS011;9069;52.044;7.472;2022-07-01T01:50:05;3.67;;;2.95;;
17886;SDS011;9069;52.044;7.472;2022-07-01T01:52:34;5.60;;;3.30;;
17886;SDS011;9069;52.044;7.472;2022-07-01T01:55:01;4.43;;;2.97;;
17886;SDS011;9069;52.044;7.472;2022-07-01T01:57:27;3.60;;;3.20;;
17886;SDS011;9069;52.044;7.472;2022-07-01T01:59:54;4.70;;;3.28;;
17886;SDS011;9069;52.044;7.472;2022-07-01T02:02:21;4.13;;;3.33;;
17886;SDS011;9069;52.044;7.472;2022-07-01T02:04:48;4.72;;;3.38;;
17886;SDS011;9069;52.044;7.472;2022-07-01T02:07:15;7.00;;;4.32;;
17886;SDS011;9069;52.044;7.472;2022-07-01T02:09:42;7.25;;;4.35;;
17886;SDS011;9069;52.044;7.472;2022-07-01T02:12:09;5.70;;;4.40;;
17886;SDS011;9069;52.044;7.472;2022-07-01T02:14:35;5.43;;;4.43;;
17886;SDS011;9069;52.044;7.472;2022-07-01T02:17:03;7.40;;;4.57;;
17886;SDS011;9069;52.044;7.472;2022-07-01T02:19:29;5.85;;;4.32;;
17886;SDS011;9069;52.044;7.472;2022-07-01T02:21:56;7.00;;;4.72;;
17886;SDS011;9069;52.044;7.472;2022-07-01T02:24:23;4.80;;;4.22;;
17886;SDS011;9069;52.044;7.472;2022-07-01T02:26:49;6.80;;;5.28;;
17886;SDS011;9069;52.044;7.472;2022-07-01T02:29:16;9.68;;;5.68;;
17886;SDS011;9069;52.044;7.472;2022-07-01T02:31:43;7.45;;;5.57;;
17886;SDS011;9069;52.044;7.472;2022-07-01T02:34:10;10.70;;;6.40;;
17886;SDS011;9069;52.044;7.472;2022-07-01T02:36:36;10.70;;;6.38;;
17886;SDS011;9069;52.044;7.472;2022-07-01T02:39:03;9.45;;;7.18;;
17886;SDS011;9069;52.044;7.472;2022-07-01T02:41:30;11.32;;;7.15;;
17886;SDS011;9069;52.044;7.472;2022-07-01T02:43:56;10.60;;;7.22;;
17886;SDS011;9069;52.044;7.472;2022-07-01T02:46:23;10.75;;;7.90;;
17886;SDS011;9069;52.044;7.472;2022-07-01T02:48:50;9.10;;;7.05;;
17886;SDS011;9069;52.044;7.472;2022-07-01T02:51:17;13.57;;;8.15;;
17886;SDS011;9069;52.044;7.472;2022-07-01T02:53:44;9.43;;;7.82;;
17886;SDS011;9069;52.044;7.472;2022-07-01T02:56:10;13.30;;;8.20;;
17886;SDS011;9069;52.044;7.472;2022-07-01T02:58:37;11.40;;;7.57;;
17886;SDS011;9069;52.044;7.472;2022-07-01T03:01:04;10.50;;;8.50;;
17886;SDS011;9069;52.044;7.472;2022-07-01T03:03:30;10.00;;;8.18;;
17886;SDS011;9069;52.044;7.472;2022-07-01T03:05:57;10.85;;;7.65;;
17886;SDS011;9069;52.044;7.472;2022-07-01T03:08:24;10.65;;;8.20;;
17886;SDS011;9069;52.044;7.472;2022-07-01T03:10:50;11.00;;;9.25;;
17886;SDS011;9069;52.044;7.472;2022-07-01T03:13:17;10.60;;;8.45;;
17886;SDS011;9069;52.044;7.472;2022-07-01T03:15:45;13.82;;;9.45;;
17886;SDS011;9069;52.044;7.472;2022-07-01T03:18:12;11.35;;;8.85;;
17886;SDS011;9069;52.044;7.472;2022-07-01T03:20:39;11.00;;;8.75;;
17886;SDS011;9069;52.044;7.472;2022-07-01T03:23:05;10.05;;;8.02;;
17886;SDS011;9069;52.044;7.472;2022-07-01T03:25:32;11.85;;;8.77;;
17886;SDS011;9069;52.044;7.472;2022-07-01T03:27:59;12.48;;;9.90;;
17886;SDS011;9069;52.044;7.472;2022-07-01T03:30:29;10.95;;;8.52;;
17886;SDS011;9069;52.044;7.472;2022-07-01T03:32:56;10.90;;;8.98;;
17886;SDS011;9069;52.044;7.472;2022-07-01T03:35:22;10.63;;;8.55;;
17886;SDS011;9069;52.044;7.472;2022-07-01T03:38:02;11.02;;;8.68;;
17886;SDS011;9069;52.044;7.472;2022-07-01T03:40:30;12.65;;;8.50;;
17886;SDS011;9069;52.044;7.472;2022-07-01T03:42:58;9.75;;;7.90;;
17886;SDS011;9069;52.044;7.472;2022-07-01T03:45:25;11.65;;;8.13;;
17886;SDS011;9069;52.044;7.472;2022-07-01T03:47:52;9.40;;;7.53;;
17886;SDS011;9069;52.044;7.472;2022-07-01T03:50:22;9.85;;;7.80;;
17886;SDS011;9069;52.044;7.472;2022-07-01T03:52:50;10.02;;;8.25;;
17886;SDS011;9069;52.044;7.472;2022-07-01T03:55:37;9.13;;;7.47;;
17886;SDS011;9069;52.044;7.472;2022-07-01T03:58:04;11.77;;;8.40;;
17886;SDS011;9069;52.044;7.472;2022-07-01T04:00:35;11.45;;;7.95;;
17886;SDS011;9069;52.044;7.472;2022-07-01T04:03:03;13.63;;;8.30;;
17886;SDS011;9069;52.044;7.472;2022-07-01T04:05:33;12.30;;;8.40;;
17886;SDS011;9069;52.044;7.472;2022-07-01T04:08:04;14.75;;;8.48;;
17886;SDS011;9069;52.044;7.472;2022-07-01T04:10:32;13.13;;;9.07;;
17886;SDS011;9069;52.044;7.472;2022-07-01T04:13:00;10.23;;;8.57;;
17886;SDS011;9069;52.044;7.472;2022-07-01T04:15:49;11.85;;;8.80;;
17886;SDS011;9069;52.044;7.472;2022-07-01T04:18:16;13.15;;;8.65;;
17886;SDS011;9069;52.044;7.472;2022-07-01T04:20:43;14.43;;;9.02;;
17886;SDS011;9069;52.044;7.472;2022-07-01T04:23:30;14.07;;;9.50;;
17886;SDS011;9069;52.044;7.472;2022-07-01T04:25:56;13.07;;;9.00;;
17886;SDS011;9069;52.044;7.472;2022-07-01T04:28:43;12.75;;;9.00;;
17886;SDS011;9069;52.044;7.472;2022-07-01T04:31:10;14.50;;;9.95;;
17886;SDS011;9069;52.044;7.472;2022-07-01T04:33:37;16.33;;;10.40;;
17886;SDS011;9069;52.044;7.472;2022-07-01T04:36:03;15.77;;;10.73;;
17886;SDS011;9069;52.044;7.472;2022-07-01T04:38:30;18.65;;;11.65;;
17886;SDS011;9069;52.044;7.472;2022-07-01T04:40:57;17.85;;;11.10;;
17886;SDS011;9069;52.044;7.472;2022-07-01T04:43:42;14.50;;;11.05;;
17886;SDS011;9069;52.044;7.472;2022-07-01T04:46:09;17.25;;;11.98;;
17886;SDS011;9069;52.044;7.472;2022-07-01T04:48:36;19.77;;;11.63;;
17886;SDS011;9069;52.044;7.472;2022-07-01T04:51:02;20.13;;;11.77;;
17886;SDS011;9069;52.044;7.472;2022-07-01T04:53:30;16.98;;;11.80;;
17886;SDS011;9069;52.044;7.472;2022-07-01T04:55:57;17.95;;;12.85;;
17886;SDS011;9069;52.044;7.472;2022-07-01T04:58:24;21.08;;;13.43;;
17886;SDS011;9069;52.044;7.472;2022-07-01T05:00:51;18.35;;;12.35;;
17886;SDS011;9069;52.044;7.472;2022-07-01T05:03:18;17.90;;;11.68;;
17886;SDS011;9069;52.044;7.472;2022-07-01T05:05:45;16.50;;;11.88;;
17886;SDS011;9069;52.044;7.472;2022-07-01T05:08:12;16.60;;;11.23;;
17886;SDS011;9069;52.044;7.472;2022-07-01T05:10:39;16.88;;;11.38;;
17886;SDS011;9069;52.044;7.472;2022-07-01T05:13:05;17.25;;;10.85;;
17886;SDS011;9069;52.044;7.472;2022-07-01T05:15:33;14.82;;;10.68;;
17886;SDS011;9069;52.044;7.472;2022-07-01T05:18:00;13.50;;;10.43;;
17886;SDS011;9069;52.044;7.472;2022-07-01T05:20:45;13.10;;;9.82;;
17886;SDS011;9069;52.044;7.472;2022-07-01T05:23:35;13.63;;;10.10;;
17886;SDS011;9069;52.044;7.472;2022-07-01T05:26:03;14.73;;;10.35;;
17886;SDS011;9069;52.044;7.472;2022-07-01T05:28:30;11.80;;;9.30;;
17886;SDS011;9069;52.044;7.472;2022-07-01T05:30:57;14.07;;;9.52;;
17886;SDS011;9069;52.044;7.472;2022-07-01T05:33:24;14.75;;;9.43;;
17886;SDS011;9069;52.044;7.472;2022-07-01T05:35:52;14.18;;;9.02;;
17886;SDS011;9069;52.044;7.472;2022-07-01T05:38:20;13.25;;;9.63;;
17886;SDS011;9069;52.044;7.472;2022-07-01T05:40:47;12.73;;;9.18;;
17886;SDS011;9069;52.044;7.472;2022-07-01T05:43:14;14.43;;;9.60;;
17886;SDS011;9069;52.044;7.472;2022-07-01T05:45:40;13.00;;;9.00;;
17886;SDS011;9069;52.044;7.472;2022-07-01T05:48:07;12.88;;;7.95;;
17886;SDS011;9069;52.044;7.472;2022-07-01T05:50:34;13.48;;;7.90;;
17886;SDS011;9069;52.044;7.472;2022-07-01T05:53:00;11.18;;;7.68;;
17886;SDS011;9069;52.044;7.472;2022-07-01T05:55:27;15.68;;;8.00;;
17886;SDS011;9069;52.044;7.472;2022-07-01T05:57:54;11.18;;;7.97;;
17886;SDS011;9069;52.044;7.472;2022-07-01T06:00:21;11.35;;;7.45;;
17886;SDS011;9069;52.044;7.472;2022-07-01T06:02:47;10.15;;;7.32;;
17886;SDS011;9069;52.044;7.472;2022-07-01T06:05:14;8.88;;;6.57;;
17886;SDS011;9069;52.044;7.472;2022-07-01T06:07:41;11.77;;;7.30;;
17886;SDS011;9069;52.044;7.472;2022-07-01T06:10:08;10.95;;;7.40;;
17886;SDS011;9069;52.044;7.472;2022-07-01T06:12:36;11.55;;;7.55;;
17886;SDS011;9069;52.044;7.472;2022-07-01T06:15:07;13.07;;;6.88;;
17886;SDS011;9069;52.044;7.472;2022-07-01T06:17:36;10.20;;;6.85;;
17886;SDS011;9069;52.044;7.472;2022-07-01T06:20:05;9.35;;;6.72;;
17886;SDS011;9069;52.044;7.472;2022-07-01T06:22:32;6.70;;;5.78;;
17886;SDS011;9069;52.044;7.472;2022-07-01T06:25:00;12.45;;;6.63;;
17886;SDS011;9069;52.044;7.472;2022-07-01T06:27:27;10.45;;;6.35;;
17886;SDS011;9069;52.044;7.472;2022-07-01T06:29:54;11.13;;;6.03;;
17886;SDS011;9069;52.044;7.472;2022-07-01T06:32:21;8.90;;;6.72;;
17886;SDS011;9069;52.044;7.472;2022-07-01T06:34:48;8.13;;;6.18;;
17886;SDS011;9069;52.044;7.472;2022-07-01T06:37:15;7.88;;;5.70;;
17886;SDS011;9069;52.044;7.472;2022-07-01T06:39:42;7.85;;;5.78;;
17886;SDS011;9069;52.044;7.472;2022-07-01T06:42:08;10.50;;;5.75;;
17886;SDS011;9069;52.044;7.472;2022-07-01T06:44:35;9.07;;;5.53;;
17886;SDS011;9069;52.044;7.472;2022-07-01T06:47:02;8.38;;;5.25;;
17886;SDS011;9069;52.044;7.472;2022-07-01T06:49:29;7.95;;;5.85;;
17886;SDS011;9069;52.044;7.472;2022-07-01T06:51:56;9.23;;;6.38;;
17886;SDS011;9069;52.044;7.472;2022-07-01T06:54:22;10.77;;;6.05;;
17886;SDS011;9069;52.044;7.472;2022-07-01T06:56:49;8.93;;;5.45;;
17886;SDS011;9069;52.044;7.472;2022-07-01T06:59:16;7.32;;;5.70;;
17886;SDS011;9069;52.044;7.472;2022-07-01T07:01:43;9.95;;;5.93;;
17886;SDS011;9069;52.044;7.472;2022-07-01T07:04:09;6.82;;;5.03;;
17886;SDS011;9069;52.044;7.472;2022-07-01T07:06:36;8.38;;;5.30;;
17886;SDS011;9069;52.044;7.472;2022-07-01T07:09:03;6.50;;;5.18;;
17886;SDS011;9069;52.044;7.472;2022-07-01T07:14:26;8.93;;;5.13;;
17886;SDS011;9069;52.044;7.472;2022-07-01T07:16:52;9.18;;;5.93;;
17886;SDS011;9069;52.044;7.472;2022-07-01T07:19:20;8.02;;;5.80;;
17886;SDS011;9069;52.044;7.472;2022-07-01T07:21:47;9.48;;;5.50;;
17886;SDS011;9069;52.044;7.472;2022-07-01T07:24:14;8.82;;;5.55;;
17886;SDS011;9069;52.044;7.472;2022-07-01T07:26:40;9.02;;;6.28;;
17886;SDS011;9069;52.044;7.472;2022-07-01T07:29:08;10.25;;;5.93;;
17886;SDS011;9069;52.044;7.472;2022-07-01T07:31:35;9.55;;;6.10;;
17886;SDS011;9069;52.044;7.472;2022-07-01T07:34:01;7.22;;;5.45;;
17886;SDS011;9069;52.044;7.472;2022-07-01T07:36:28;8.57;;;5.78;;
17886;SDS011;9069;52.044;7.472;2022-07-01T07:38:55;11.93;;;5.93;;
17886;SDS011;9069;52.044;7.472;2022-07-01T07:41:22;8.07;;;5.57;;
17886;SDS011;9069;52.044;7.472;2022-07-01T07:43:48;7.43;;;5.18;;
17886;SDS011;9069;52.044;7.472;2022-07-01T07:46:15;7.38;;;5.10;;
17886;SDS011;9069;52.044;7.472;2022-07-01T07:48:42;7.30;;;4.82;;
17886;SDS011;9069;52.044;7.472;2022-07-01T07:51:09;6.05;;;4.43;;
17886;SDS011;9069;52.044;7.472;2022-07-01T07:53:40;7.95;;;5.18;;
17886;SDS011;9069;52.044;7.472;2022-07-01T07:56:07;8.98;;;5.57;;
17886;SDS011;9069;52.044;7.472;2022-07-01T07:58:34;8.02;;;5.65;;
17886;SDS011;9069;52.044;7.472;2022-07-01T08:01:00;9.02;;;6.47;;
17886;SDS011;9069;52.044;7.472;2022-07-01T08:03:30;12.05;;;6.55;;
17886;SDS011;9069;52.044;7.472;2022-07-01T08:05:57;9.85;;;6.03;;
17886;SDS011;9069;52.044;7.472;2022-07-01T08:08:24;8.02;;;5.53;;
17886;SDS011;9069;52.044;7.472;2022-07-01T08:10:51;7.35;;;5.30;;
17886;SDS011;9069;52.044;7.472;2022-07-01T08:13:18;9.10;;;5.60;;
17886;SDS011;9069;52.044;7.472;2022-07-01T08:15:44;7.43;;;5.07;;
17886;SDS011;9069;52.044;7.472;2022-07-01T08:18:11;8.10;;;4.40;;
17886;SDS011;9069;52.044;7.472;2022-07-01T08:20:38;6.03;;;4.68;;
17886;SDS011;9069;52.044;7.472;2022-07-01T08:23:05;4.95;;;4.05;;
17886;SDS011;9069;52.044;7.472;2022-07-01T08:25:31;4.82;;;3.42;;
17886;SDS011;9069;52.044;7.472;2022-07-01T08:28:01;5.47;;;4.22;;
17886;SDS011;9069;52.044;7.472;2022-07-01T08:30:29;6.78;;;3.85;;
17886;SDS011;9069;52.044;7.472;2022-07-01T08:32:56;5.30;;;3.13;;
17886;SDS011;9069;52.044;7.472;2022-07-01T08:35:22;3.78;;;3.00;;
17886;SDS011;9069;52.044;7.472;2022-07-01T08:37:49;6.43;;;3.55;;
17886;SDS011;9069;52.044;7.472;2022-07-01T08:40:16;6.43;;;2.88;;
17886;SDS011;9069;52.044;7.472;2022-07-01T08:42:44;5.35;;;3.08;;
17886;SDS011;9069;52.044;7.472;2022-07-01T08:45:10;4.10;;;2.83;;
17886;SDS011;9069;52.044;7.472;2022-07-01T08:47:50;3.83;;;2.95;;
17886;SDS011;9069;52.044;7.472;2022-07-01T08:50:28;4.35;;;2.65;;
17886;SDS011;9069;52.044;7.472;2022-07-01T08:53:00;4.60;;;2.72;;
17886;SDS011;9069;52.044;7.472;2022-07-01T08:55:27;5.18;;;2.72;;
17886;SDS011;9069;52.044;7.472;2022-07-01T08:57:54;4.28;;;3.17;;
17886;SDS011;9069;52.044;7.472;2022-07-01T09:00:21;4.43;;;2.83;;
17886;SDS011;9069;52.044;7.472;2022-07-01T09:02:52;6.70;;;2.25;;
17886;SDS011;9069;52.044;7.472;2022-07-01T09:05:20;5.70;;;2.58;;
17886;SDS011;9069;52.044;7.472;2022-07-01T09:07:48;5.68;;;2.40;;
17886;SDS011;9069;52.044;7.472;2022-07-01T09:10:20;8.18;;;2.25;;
17886;SDS011;9069;52.044;7.472;2022-07-01T09:12:47;3.22;;;1.83;;
17886;SDS011;9069;52.044;7.472;2022-07-01T09:15:26;3.63;;;1.92;;
17886;SDS011;9069;52.044;7.472;2022-07-01T09:18:12;1.95;;;1.52;;
17886;SDS011;9069;52.044;7.472;2022-07-01T09:20:44;2.17;;;1.33;;
17886;SDS011;9069;52.044;7.472;2022-07-01T09:23:17;4.15;;;1.50;;
17886;SDS011;9069;52.044;7.472;2022-07-01T09:25:45;1.98;;;1.40;;
17886;SDS011;9069;52.044;7.472;2022-07-01T09:28:22;3.95;;;1.80;;
17886;SDS011;9069;52.044;7.472;2022-07-01T09:30:50;3.67;;;1.60;;
17886;SDS011;9069;52.044;7.472;2022-07-01T09:33:24;2.70;;;1.65;;
17886;SDS011;9069;52.044;7.472;2022-07-01T09:35:57;1.73;;;1.23;;
17886;SDS011;9069;52.044;7.472;2022-07-01T09:38:25;2.65;;;1.52;;
17886;SDS011;9069;52.044;7.472;2022-07-01T09:41:02;2.05;;;1.27;;
17886;SDS011;9069;52.044;7.472;2022-07-01T09:43:30;3.28;;;1.30;;
17886;SDS011;9069;52.044;7.472;2022-07-01T09:46:00;1.60;;;1.33;;
17886;SDS011;9069;52.044;7.472;2022-07-01T09:51:03;3.28;;;1.40;;
17886;SDS011;9069;52.044;7.472;2022-07-01T09:53:36;7.63;;;1.70;;
17886;SDS011;9069;52.044;7.472;2022-07-01T09:56:04;3.03;;;2.10;;
17886;SDS011;9069;52.044;7.472;2022-07-01T09:58:31;6.05;;;1.67;;
17886;SDS011;9069;52.044;7.472;2022-07-01T10:00:58;2.50;;;1.30;;
17886;SDS011;9069;52.044;7.472;2022-07-01T10:03:26;3.10;;;1.88;;
17886;SDS011;9069;52.044;7.472;2022-07-01T10:05:54;4.25;;;1.67;;
17886;SDS011;9069;52.044;7.472;2022-07-01T10:14:29;2.72;;;1.50;;
17886;SDS011;9069;52.044;7.472;2022-07-01T10:16:57;4.28;;;1.60;;
17886;SDS011;9069;52.044;7.472;2022-07-01T10:19:24;2.17;;;1.50;;
17886;SDS011;9069;52.044;7.472;2022-07-01T10:21:53;2.60;;;1.80;;
17886;SDS011;9069;52.044;7.472;2022-07-01T10:24:25;2.13;;;1.65;;
17886;SDS011;9069;52.044;7.472;2022-07-01T10:26:58;4.47;;;1.35;;
17886;SDS011;9069;52.044;7.472;2022-07-01T10:29:27;1.98;;;1.73;;
17886;SDS011;9069;52.044;7.472;2022-07-01T10:31:59;3.53;;;1.67;;
17886;SDS011;9069;52.044;7.472;2022-07-01T10:34:34;3.08;;;1.33;;
17886;SDS011;9069;52.044;7.472;2022-07-01T10:37:07;1.95;;;1.55;;
17886;SDS011;9069;52.044;7.472;2022-07-01T10:42:56;4.47;;;1.70;;
17886;SDS011;9069;52.044;7.472;2022-07-01T10:45:43;2.95;;;1.70;;
17886;SDS011;9069;52.044;7.472;2022-07-01T10:48:17;5.72;;;2.10;;
17886;SDS011;9069;52.044;7.472;2022-07-01T10:50:48;2.38;;;1.92;;
17886;SDS011;9069;52.044;7.472;2022-07-01T10:53:17;2.00;;;1.80;;
17886;SDS011;9069;52.044;7.472;2022-07-01T10:55:45;6.65;;;1.90;;
17886;SDS011;9069;52.044;7.472;2022-07-01T10:58:36;4.13;;;1.88;;
17886;SDS011;9069;52.044;7.472;2022-07-01T11:01:04;3.15;;;1.45;;
17886;SDS011;9069;52.044;7.472;2022-07-01T11:03:34;2.53;;;1.20;;
17886;SDS011;9069;52.044;7.472;2022-07-01T11:06:03;2.47;;;1.40;;
17886;SDS011;9069;52.044;7.472;2022-07-01T11:08:30;6.22;;;1.85;;
17886;SDS011;9069;52.044;7.472;2022-07-01T11:10:58;2.28;;;1.38;;
17886;SDS011;9069;52.044;7.472;2022-07-01T11:13:28;3.40;;;1.35;;
17886;SDS011;9069;52.044;7.472;2022-07-01T11:15:55;2.42;;;1.50;;
17886;SDS011;9069;52.044;7.472;2022-07-01T11:18:23;3.55;;;1.55;;
17886;SDS011;9069;52.044;7.472;2022-07-01T11:20:51;2.63;;;1.70;;
17886;SDS011;9069;52.044;7.472;2022-07-01T11:23:20;2.97;;;1.42;;
17886;SDS011;9069;52.044;7.472;2022-07-01T11:25:47;2.88;;;1.60;;
17886;SDS011;9069;52.044;7.472;2022-07-01T11:28:14;2.05;;;1.27;;
17886;SDS011;9069;52.044;7.472;2022-07-01T11:30:41;2.13;;;1.35;;
17886;SDS011;9069;52.044;7.472;2022-07-01T11:33:08;3.20;;;1.45;;
17886;SDS011;9069;52.044;7.472;2022-07-01T11:35:36;4.93;;;1.38;;
17886;SDS011;9069;52.044;7.472;2022-07-01T11:38:22;3.80;;;1.40;;
17886;SDS011;9069;52.044;7.472;2022-07-01T11:41:10;6.30;;;1.35;;
17886;SDS011;9069;52.044;7.472;2022-07-01T11:43:46;1.45;;;1.00;;
17886;SDS011;9069;52.044;7.472;2022-07-01T11:46:13;3.20;;;1.42;;
17886;SDS011;9069;52.044;7.472;2022-07-01T11:48:44;2.63;;;1.48;;
17886;SDS011;9069;52.044;7.472;2022-07-01T11:51:17;1.88;;;1.50;;
17886;SDS011;9069;52.044;7.472;2022-07-01T11:53:47;2.05;;;1.30;;
17886;SDS011;9069;52.044;7.472;2022-07-01T11:56:16;4.25;;;1.60;;
17886;SDS011;9069;52.044;7.472;2022-07-01T12:01:21;1.90;;;1.33;;
17886;SDS011;9069;52.044;7.472;2022-07-01T12:03:59;1.98;;;1.60;;
17886;SDS011;9069;52.044;7.472;2022-07-01T12:06:29;4.22;;;1.27;;
17886;SDS011;9069;52.044;7.472;2022-07-01T12:08:57;2.58;;;1.13;;
17886;SDS011;9069;52.044;7.472;2022-07-01T12:11:24;2.72;;;1.40;;
17886;SDS011;9069;52.044;7.472;2022-07-01T12:13:52;1.08;;;0.98;;
17886;SDS011;9069;52.044;7.472;2022-07-01T12:16:19;2.75;;;1.10;;
17886;SDS011;9069;52.044;7.472;2022-07-01T12:18:51;2.60;;;1.40;;
17886;SDS011;9069;52.044;7.472;2022-07-01T12:21:26;1.35;;;1.17;;
17886;SDS011;9069;52.044;7.472;2022-07-01T12:24:07;3.00;;;1.25;;
17886;SDS011;9069;52.044;7.472;2022-07-01T12:26:46;1.42;;;0.93;;
17886;SDS011;9069;52.044;7.472;2022-07-01T12:32:04;4.95;;;1.10;;
17886;SDS011;9069;52.044;7.472;2022-07-01T12:34:36;1.50;;;0.90;;
17886;SDS011;9069;52.044;7.472;2022-07-01T12:37:12;2.40;;;0.98;;
17886;SDS011;9069;52.044;7.472;2022-07-01T12:39:48;3.33;;;1.40;;
17886;SDS011;9069;52.044;7.472;2022-07-01T12:42:20;1.73;;;0.82;;
17886;SDS011;9069;52.044;7.472;2022-07-01T12:44:47;3.42;;;1.00;;
17886;SDS011;9069;52.044;7.472;2022-07-01T12:47:18;1.70;;;0.75;;
17886;SDS011;9069;52.044;7.472;2022-07-01T12:49:48;1.73;;;0.90;;
17886;SDS011;9069;52.044;7.472;2022-07-01T12:52:24;0.88;;;0.70;;
17886;SDS011;9069;52.044;7.472;2022-07-01T12:54:55;1.70;;;0.77;;
17886;SDS011;9069;52.044;7.472;2022-07-01T12:57:32;1.23;;;0.80;;
17886;SDS011;9069;52.044;7.472;2022-07-01T13:00:04;1.95;;;0.80;;
17886;SDS011;9069;52.044;7.472;2022-07-01T13:02:31;1.88;;;0.90;;
17886;SDS011;9069;52.044;7.472;2022-07-01T13:04:58;2.03;;;0.80;;
17886;SDS011;9069;52.044;7.472;2022-07-01T13:07:24;4.05;;;0.90;;
17886;SDS011;9069;52.044;7.472;2022-07-01T13:09:51;3.22;;;1.10;;
17886;SDS011;9069;52.044;7.472;2022-07-01T13:12:18;0.60;;;0.60;;
17886;SDS011;9069;52.044;7.472;2022-07-01T13:14:45;1.15;;;0.60;;
17886;SDS011;9069;52.044;7.472;2022-07-01T13:17:11;0.60;;;0.60;;
17886;SDS011;9069;52.044;7.472;2022-07-01T13:19:38;2.90;;;0.93;;
17886;SDS011;9069;52.044;7.472;2022-07-01T13:22:05;1.27;;;0.75;;
17886;SDS011;9069;52.044;7.472;2022-07-01T13:24:32;1.80;;;0.73;;
17886;SDS011;9069;52.044;7.472;2022-07-01T13:26:59;2.30;;;0.68;;
17886;SDS011;9069;52.044;7.472;2022-07-01T13:29:26;2.15;;;0.80;;
17886;SDS011;9069;52.044;7.472;2022-07-01T13:31:53;2.15;;;0.70;;
17886;SDS011;9069;52.044;7.472;2022-07-01T13:34:20;3.50;;;0.80;;
17886;SDS011;9069;52.044;7.472;2022-07-01T13:36:47;6.07;;;0.80;;
17886;SDS011;9069;52.044;7.472;2022-07-01T13:39:14;0.73;;;0.70;;
17886;SDS011;9069;52.044;7.472;2022-07-01T13:41:41;1.67;;;0.70;;
17886;SDS011;9069;52.044;7.472;2022-07-01T13:44:07;3.33;;;0.73;;
17886;SDS011;9069;52.044;7.472;2022-07-01T13:46:34;5.97;;;0.77;;
17886;SDS011;9069;52.044;7.472;2022-07-01T13:49:02;1.10;;;0.70;;
17886;SDS011;9069;52.044;7.472;2022-07-01T13:51:28;2.15;;;0.75;;
17886;SDS011;9069;52.044;7.472;2022-07-01T13:53:56;5.50;;;0.70;;
17886;SDS011;9069;52.044;7.472;2022-07-01T13:56:26;1.42;;;0.70;;
17886;SDS011;9069;52.044;7.472;2022-07-01T13:58:53;1.65;;;0.60;;
17886;SDS011;9069;52.044;7.472;2022-07-01T14:01:21;1.90;;;0.50;;
17886;SDS011;9069;52.044;7.472;2022-07-01T14:03:49;2.72;;;0.63;;
17886;SDS011;9069;52.044;7.472;2022-07-01T14:06:17;2.80;;;0.38;;
17886;SDS011;9069;52.044;7.472;2022-07-01T14:08:45;2.08;;;1.13;;
17886;SDS011;9069;52.044;7.472;2022-07-01T14:11:11;1.10;;;0.50;;
17886;SDS011;9069;52.044;7.472;2022-07-01T14:13:38;4.55;;;0.73;;
17886;SDS011;9069;52.044;7.472;2022-07-01T14:16:06;0.70;;;0.50;;
17886;SDS011;9069;52.044;7.472;2022-07-01T14:18:33;1.27;;;0.50;;
17886;SDS011;9069;52.044;7.472;2022-07-01T14:21:01;2.50;;;0.40;;
17886;SDS011;9069;52.044;7.472;2022-07-01T14:23:30;1.02;;;0.38;;
17886;SDS011;9069;52.044;7.472;2022-07-01T14:25:58;2.30;;;0.50;;
17886;SDS011;9069;52.044;7.472;2022-07-01T14:28:26;2.70;;;0.70;;
17886;SDS011;9069;52.044;7.472;2022-07-01T14:30:52;1.95;;;0.50;;
17886;SDS011;9069;52.044;7.472;2022-07-01T14:33:21;2.90;;;0.45;;
17886;SDS011;9069;52.044;7.472;2022-07-01T14:35:48;1.00;;;0.50;;
17886;SDS011;9069;52.044;7.472;2022-07-01T14:38:21;1.10;;;0.35;;
17886;SDS011;9069;52.044;7.472;2022-07-01T14:40:48;0.65;;;0.22;;
17886;SDS011;9069;52.044;7.472;2022-07-01T14:43:14;2.17;;;0.60;;
17886;SDS011;9069;52.044;7.472;2022-07-01T14:45:41;1.23;;;0.47;;
17886;SDS011;9069;52.044;7.472;2022-07-01T14:48:08;4.10;;;0.60;;
17886;SDS011;9069;52.044;7.472;2022-07-01T14:50:35;1.35;;;0.55;;
17886;SDS011;9069;52.044;7.472;2022-07-01T14:53:02;2.33;;;0.50;;
17886;SDS011;9069;52.044;7.472;2022-07-01T14:55:30;1.70;;;0.50;;
17886;SDS011;9069;52.044;7.472;2022-07-01T14:57:56;2.17;;;0.30;;
17886;SDS011;9069;52.044;7.472;2022-07-01T15:00:23;3.70;;;0.85;;
17886;SDS011;9069;52.044;7.472;2022-07-01T15:02:51;1.85;;;0.60;;
17886;SDS011;9069;52.044;7.472;2022-07-01T15:05:21;1.05;;;0.50;;
17886;SDS011;9069;52.044;7.472;2022-07-01T15:07:49;1.27;;;0.50;;
17886;SDS011;9069;52.044;7.472;2022-07-01T15:10:16;2.17;;;0.50;;
17886;SDS011;9069;52.044;7.472;2022-07-01T15:12:43;0.82;;;0.47;;
17886;SDS011;9069;52.044;7.472;2022-07-01T15:15:10;1.20;;;0.50;;
17886;SDS011;9069;52.044;7.472;2022-07-01T15:17:45;0.32;;;0.32;;
17886;SDS011;9069;52.044;7.472;2022-07-01T15:20:12;1.23;;;0.60;;
17886;SDS011;9069;52.044;7.472;2022-07-01T15:22:40;1.27;;;0.60;;
17886;SDS011;9069;52.044;7.472;2022-07-01T15:25:08;1.42;;;0.60;;
17886;SDS011;9069;52.044;7.472;2022-07-01T15:27:35;1.40;;;0.50;;